createdAt,value
2023-12-11T00:00:06.195Z,2.40
2023-12-11T00:04:07.607Z,1.40
2023-12-11T00:08:09.075Z,1.60
2023-12-11T00:12:10.887Z,1.20
2023-12-11T00:16:12.268Z,1.50
2023-12-11T00:20:13.606Z,1.07
2023-12-11T00:24:15.153Z,1.20
2023-12-11T00:28:17.702Z,1.33
2023-12-11T00:32:19.014Z,1.10
2023-12-11T00:36:20.358Z,2.17
2023-12-11T00:40:21.664Z,1.87
2023-12-11T00:44:23.024Z,1.60
2023-12-11T00:48:24.417Z,1.40
2023-12-11T00:52:25.891Z,1.70
2023-12-11T00:56:27.225Z,1.50
2023-12-11T01:00:28.569Z,1.60
2023-12-11T01:04:30.024Z,1.53
2023-12-11T01:08:33.270Z,1.50
2023-12-11T01:12:36.122Z,1.43
2023-12-11T01:16:37.424Z,1.30
2023-12-11T01:20:39.970Z,2.87
2023-12-11T01:24:41.450Z,1.63
2023-12-11T01:28:43.602Z,1.50
2023-12-11T01:32:44.963Z,2.00
2023-12-11T01:36:46.317Z,1.40
2023-12-11T01:40:48.336Z,2.40
2023-12-11T01:44:49.672Z,1.37
2023-12-11T01:48:53.520Z,1.70
2023-12-11T01:52:54.923Z,1.40
2023-12-11T01:56:56.271Z,1.53
2023-12-11T02:00:58.618Z,1.43
2023-12-11T02:05:01.082Z,1.50
2023-12-11T02:09:02.824Z,1.40
2023-12-11T02:13:04.733Z,1.73
2023-12-11T02:17:10.947Z,1.80
2023-12-11T02:21:12.397Z,1.40
2023-12-11T02:25:13.908Z,1.67
2023-12-11T02:29:15.600Z,1.70
2023-12-11T02:33:17.486Z,1.20
2023-12-11T02:37:18.856Z,1.50
2023-12-11T02:41:20.205Z,1.97
2023-12-11T02:45:21.556Z,1.23
2023-12-11T02:49:22.936Z,1.53
2023-12-11T02:53:24.310Z,1.60
2023-12-11T02:57:25.669Z,1.50
2023-12-11T03:01:27.174Z,1.53
2023-12-11T03:05:28.669Z,1.90
2023-12-11T03:09:29.995Z,1.70
2023-12-11T03:13:31.342Z,1.83
2023-12-11T03:17:32.943Z,2.00
2023-12-11T03:21:34.434Z,2.03
2023-12-11T03:25:35.847Z,1.70
2023-12-11T03:29:37.169Z,2.00
2023-12-11T03:33:38.580Z,1.90
2023-12-11T03:37:40.119Z,2.33
2023-12-11T03:41:41.638Z,1.83
2023-12-11T03:45:42.987Z,1.57
2023-12-11T03:54:17.783Z,2.23
2023-12-11T03:58:19.959Z,2.13
2023-12-11T04:02:21.395Z,1.73
2023-12-11T04:06:23.081Z,1.70
2023-12-11T04:10:24.857Z,2.10
2023-12-11T04:14:26.184Z,1.70
2023-12-11T04:18:27.521Z,1.80
2023-12-11T04:22:28.788Z,1.90
2023-12-11T04:26:30.136Z,2.60
2023-12-11T04:30:31.515Z,2.33
2023-12-11T04:34:32.903Z,2.93
2023-12-11T04:38:34.193Z,2.43
2023-12-11T04:42:35.719Z,2.40
2023-12-11T04:46:37.045Z,1.80
2023-12-11T04:50:38.335Z,1.90
2023-12-11T04:54:41.612Z,2.40
2023-12-11T04:58:42.980Z,1.73
2023-12-11T05:02:44.316Z,2.17
2023-12-11T05:06:45.717Z,1.70
2023-12-11T05:10:47.272Z,2.80
2023-12-11T05:14:48.588Z,1.97
2023-12-11T05:18:49.961Z,1.77
2023-12-11T05:22:51.308Z,2.47
2023-12-11T05:26:54.724Z,2.20
2023-12-11T05:30:56.058Z,2.67
2023-12-11T05:34:57.385Z,2.47
2023-12-11T05:38:58.728Z,2.43
2023-12-11T05:43:00.120Z,2.53
2023-12-11T05:47:01.412Z,2.73
2023-12-11T05:51:03.104Z,2.10
2023-12-11T05:55:06.283Z,3.17
2023-12-11T05:59:07.761Z,3.13
2023-12-11T06:03:10.787Z,2.50
2023-12-11T06:07:12.515Z,2.60
2023-12-11T06:11:13.993Z,2.67
2023-12-11T06:15:15.421Z,3.10
2023-12-11T06:19:17.777Z,2.90
2023-12-11T06:23:22.057Z,3.10
2023-12-11T06:27:25.267Z,2.83
2023-12-11T06:31:30.862Z,2.53
2023-12-11T06:35:32.232Z,2.97
2023-12-11T06:39:33.537Z,2.60
2023-12-11T06:43:36.392Z,2.40
2023-12-11T06:47:37.714Z,2.40
2023-12-11T06:51:39.272Z,2.57
2023-12-11T06:55:40.547Z,3.37
2023-12-11T06:59:42.042Z,2.60
2023-12-11T07:03:45.727Z,2.20
2023-12-11T07:07:47.038Z,2.00
2023-12-11T07:11:48.880Z,2.20
2023-12-11T07:15:50.263Z,1.97
2023-12-11T07:19:51.600Z,2.47
2023-12-11T07:23:52.847Z,2.47
2023-12-11T07:27:54.223Z,2.30
2023-12-11T07:31:55.519Z,2.37
2023-12-11T07:35:56.828Z,1.87
2023-12-11T07:39:58.231Z,2.13
2023-12-11T07:44:00.109Z,1.77
2023-12-11T07:48:01.550Z,2.13
2023-12-11T07:52:03.987Z,1.67
2023-12-11T07:56:05.911Z,2.00
2023-12-11T08:00:08.854Z,1.90
2023-12-11T08:04:10.574Z,2.20
2023-12-11T08:08:13.562Z,2.00
2023-12-11T08:12:14.939Z,2.23
2023-12-11T08:16:17.034Z,2.13
2023-12-11T08:20:20.094Z,2.20
2023-12-11T08:24:21.548Z,2.23
2023-12-11T08:28:22.908Z,2.43
2023-12-11T08:32:24.635Z,2.03
2023-12-11T08:36:25.933Z,1.97
2023-12-11T08:40:28.101Z,2.03
2023-12-11T08:44:29.464Z,1.90
2023-12-11T08:48:30.894Z,1.97
2023-12-11T08:52:32.340Z,2.90
2023-12-11T08:56:33.751Z,2.37
2023-12-11T09:00:36.129Z,2.03
2023-12-11T09:04:38.572Z,3.00
2023-12-11T09:08:41.432Z,2.30
2023-12-11T09:12:43.401Z,3.00
2023-12-11T09:16:45.672Z,2.30
2023-12-11T09:20:47.071Z,2.70
2023-12-11T09:24:48.438Z,2.70
2023-12-11T09:28:52.177Z,2.67
2023-12-11T09:32:53.225Z,2.90
2023-12-11T09:36:55.233Z,2.47
2023-12-11T09:40:58.270Z,3.43
2023-12-11T09:45:00.797Z,2.47
2023-12-11T09:49:04.126Z,2.60
2023-12-11T09:53:05.794Z,3.03
2023-12-11T09:57:11.260Z,2.93
2023-12-11T10:01:13.909Z,2.83
2023-12-11T10:05:19.244Z,2.63
2023-12-11T10:09:28.302Z,2.83
2023-12-11T10:13:29.807Z,2.47
2023-12-11T10:17:31.859Z,2.70
2023-12-11T10:21:39.105Z,2.43
2023-12-11T10:25:43.458Z,3.33
2023-12-11T10:29:44.779Z,2.73
2023-12-11T10:33:50.964Z,3.13
2023-12-11T10:38:00.775Z,2.90
2023-12-11T10:42:17.728Z,2.73
2023-12-11T10:46:19.224Z,3.30
2023-12-11T10:50:20.732Z,3.60
2023-12-11T10:54:22.114Z,3.57
2023-12-11T10:58:25.737Z,2.47
2023-12-11T11:02:27.787Z,3.00
2023-12-11T11:06:29.821Z,4.17
2023-12-11T11:10:34.949Z,2.50
2023-12-11T11:14:46.509Z,3.13
2023-12-11T11:19:05.162Z,2.93
2023-12-11T11:23:19.544Z,2.80
2023-12-11T11:27:39.381Z,3.50
2023-12-11T11:31:50.081Z,3.20
2023-12-11T11:35:52.994Z,3.20
2023-12-11T11:40:05.567Z,2.90
2023-12-11T11:44:09.679Z,2.70
2023-12-11T11:48:11.342Z,4.10
2023-12-11T11:52:14.806Z,2.63
2023-12-11T11:56:16.251Z,2.90
2023-12-11T12:00:28.697Z,3.53
2023-12-11T12:04:33.343Z,2.90
2023-12-11T12:08:37.248Z,2.83
2023-12-11T12:12:38.938Z,3.33
2023-12-11T12:16:40.604Z,2.60
2023-12-11T12:20:42.120Z,2.47
2023-12-11T12:24:45.770Z,2.50
2023-12-11T12:28:47.082Z,3.07
2023-12-11T12:32:50.991Z,2.67
2023-12-11T12:36:55.470Z,2.43
2023-12-11T12:40:56.782Z,2.50
2023-12-11T12:44:58.955Z,2.80
2023-12-11T12:49:11.752Z,2.03
2023-12-11T12:53:14.494Z,2.50
2023-12-11T12:57:17.255Z,1.80
2023-12-11T13:01:18.768Z,3.33
2023-12-11T13:05:20.234Z,4.53
2023-12-11T13:09:32.405Z,4.73
2023-12-11T13:13:33.801Z,2.63
2023-12-11T13:17:35.872Z,3.53
2023-12-11T13:21:37.791Z,2.83
2023-12-11T13:25:39.099Z,3.10
2023-12-11T13:29:40.465Z,2.80
2023-12-11T13:33:41.873Z,3.63
2023-12-11T13:37:43.434Z,3.60
2023-12-11T13:41:44.827Z,3.87
2023-12-11T13:45:46.883Z,2.03
2023-12-11T13:49:48.306Z,1.73
2023-12-11T13:53:51.319Z,2.27
2023-12-11T13:57:52.657Z,3.23
2023-12-11T14:01:56.017Z,2.73
2023-12-11T14:05:57.565Z,2.67
2023-12-11T14:09:58.945Z,2.50
2023-12-11T14:14:00.221Z,3.23
2023-12-11T14:18:03.826Z,3.00
2023-12-11T14:22:05.267Z,3.87
2023-12-11T14:26:06.648Z,3.57
2023-12-11T14:30:10.459Z,2.67
2023-12-11T14:34:11.834Z,3.57
2023-12-11T14:38:13.214Z,2.67
2023-12-11T14:42:14.546Z,2.50
2023-12-11T14:46:16.189Z,2.60
2023-12-11T14:50:17.955Z,2.63
2023-12-11T14:54:20.517Z,2.37
2023-12-11T14:58:21.903Z,2.73
2023-12-11T15:02:23.319Z,2.83
2023-12-11T15:06:25.463Z,2.10
2023-12-11T15:10:29.011Z,2.50
2023-12-11T15:14:31.859Z,2.30
2023-12-11T15:18:34.068Z,2.37
2023-12-11T15:22:35.363Z,2.50
2023-12-11T15:26:36.696Z,2.43
2023-12-11T15:30:38.109Z,2.40
2023-12-11T15:34:41.396Z,2.20
2023-12-11T15:38:43.129Z,2.47
2023-12-11T15:42:44.667Z,2.63
2023-12-11T15:46:46.133Z,2.97
2023-12-11T15:50:47.559Z,2.00
2023-12-11T15:54:49.198Z,2.63
2023-12-11T15:58:50.490Z,2.17
2023-12-11T16:02:53.049Z,2.50
2023-12-11T16:06:54.485Z,2.70
2023-12-11T16:10:56.436Z,3.33
2023-12-11T16:14:57.878Z,3.47
2023-12-11T16:19:00.201Z,3.40
2023-12-11T16:23:02.507Z,3.10
2023-12-11T16:27:04.088Z,2.77
2023-12-11T16:31:05.506Z,3.30
2023-12-11T16:35:07.183Z,3.10
2023-12-11T16:39:08.608Z,3.20
2023-12-11T16:43:10.161Z,3.27
2023-12-11T16:47:11.551Z,2.93
2023-12-11T16:51:13.170Z,2.30
2023-12-11T16:55:15.285Z,3.00
2023-12-11T16:59:16.973Z,3.57
2023-12-11T17:03:18.312Z,2.43
2023-12-11T17:07:19.675Z,2.33
2023-12-11T17:11:22.156Z,2.43
2023-12-11T17:15:23.511Z,3.20
2023-12-11T17:19:25.839Z,2.63
2023-12-11T17:23:27.388Z,3.30
2023-12-11T17:27:28.892Z,3.63
2023-12-11T17:31:30.457Z,3.27
2023-12-11T17:35:32.016Z,2.50
2023-12-11T17:39:33.290Z,2.67
2023-12-11T17:43:35.115Z,3.70
2023-12-11T17:47:36.465Z,3.73
2023-12-11T17:51:37.771Z,4.27
2023-12-11T17:55:39.071Z,5.50
2023-12-11T17:59:42.345Z,3.30
2023-12-11T18:03:43.878Z,4.20
2023-12-11T18:07:46.063Z,4.67
2023-12-11T18:11:47.364Z,3.20
2023-12-11T18:15:49.770Z,3.97
2023-12-11T18:19:51.205Z,4.17
2023-12-11T18:23:52.666Z,4.00
2023-12-11T18:27:54.092Z,4.37
2023-12-11T18:31:56.273Z,4.57
2023-12-11T18:35:58.484Z,4.33
2023-12-11T18:40:00.109Z,5.27
2023-12-11T18:44:01.597Z,4.70
2023-12-11T18:48:03.820Z,3.87
2023-12-11T18:52:05.741Z,4.50
2023-12-11T18:56:07.868Z,4.70
2023-12-11T19:00:10.355Z,3.57
2023-12-11T19:04:11.958Z,3.47
2023-12-11T19:08:13.351Z,4.33
2023-12-11T19:12:15.626Z,5.00
2023-12-11T19:16:16.957Z,4.93
2023-12-11T19:20:21.340Z,5.10
2023-12-11T19:24:22.654Z,6.00
2023-12-11T19:28:24.110Z,5.83
2023-12-11T19:32:26.604Z,4.80
2023-12-11T19:36:27.974Z,4.70
2023-12-11T19:40:29.354Z,5.20
2023-12-11T19:44:30.784Z,5.13
2023-12-11T19:48:32.375Z,4.70
2023-12-11T19:52:34.077Z,4.90
2023-12-11T19:56:35.383Z,4.27
2023-12-11T20:00:37.453Z,5.00
2023-12-11T20:04:42.685Z,4.67
2023-12-11T20:08:43.980Z,4.90
2023-12-11T20:12:45.843Z,5.97
2023-12-11T20:16:48.360Z,5.27
2023-12-11T20:20:50.817Z,5.17
2023-12-11T20:24:53.206Z,4.63
2023-12-11T20:28:58.199Z,4.80
2023-12-11T20:33:02.911Z,5.13
2023-12-11T20:37:04.529Z,4.80
2023-12-11T20:41:06.286Z,4.23
2023-12-11T20:45:07.935Z,5.30
2023-12-11T20:49:09.311Z,5.60
2023-12-11T20:53:10.599Z,5.10
2023-12-11T20:57:11.984Z,6.23
2023-12-11T21:01:29.502Z,5.50
2023-12-11T21:05:31.929Z,5.80
2023-12-11T21:09:33.277Z,5.30
2023-12-11T21:13:35.022Z,5.83
2023-12-11T21:17:38.395Z,5.10
2023-12-11T21:21:44.451Z,4.73
2023-12-11T21:25:45.939Z,4.80
2023-12-11T21:29:47.552Z,3.97
2023-12-11T21:33:53.390Z,5.07
2023-12-11T21:37:56.143Z,5.17
2023-12-11T21:41:57.547Z,4.97
2023-12-11T21:45:59.200Z,6.27
2023-12-11T21:50:01.022Z,4.80
2023-12-11T21:54:04.317Z,5.53
2023-12-11T21:58:06.056Z,4.87
2023-12-11T22:02:07.581Z,5.27
2023-12-11T22:06:10.884Z,5.33
2023-12-11T22:10:12.251Z,4.77
2023-12-11T22:14:13.687Z,4.73
2023-12-11T22:18:15.195Z,6.33
2023-12-11T22:22:16.960Z,6.13
2023-12-11T22:26:19.727Z,6.13
2023-12-11T22:30:21.209Z,6.00
2023-12-11T22:34:22.781Z,5.20
2023-12-11T22:38:24.383Z,4.73
2023-12-11T22:42:25.889Z,5.27
2023-12-11T22:46:27.926Z,6.47
2023-12-11T22:50:31.637Z,5.77
2023-12-11T22:54:32.505Z,4.90
2023-12-11T22:58:34.643Z,5.80
2023-12-11T23:02:36.123Z,5.90
2023-12-11T23:06:37.510Z,5.07
2023-12-11T23:10:38.878Z,5.97
2023-12-11T23:14:40.336Z,5.10
2023-12-11T23:18:41.868Z,6.93
2023-12-11T23:22:43.936Z,5.93
2023-12-11T23:26:45.248Z,6.10
2023-12-11T23:30:46.605Z,6.27
2023-12-11T23:34:48.625Z,5.27
2023-12-11T23:38:50.105Z,5.13
2023-12-11T23:42:52.397Z,7.30
2023-12-11T23:46:53.879Z,6.07
2023-12-11T23:50:55.240Z,6.30
2023-12-11T23:54:56.746Z,6.17
2023-12-11T23:58:58.142Z,5.77
